Time,TemperatureF,DewpointF,PressureIn,WindDirection,WindDirectionDegrees,WindSpeedMPH,WindSpeedGustMPH,Humidity,HourlyPrecipIn,Conditions,Clouds,dailyrainin,SoftwareType,DateUTC
2013-02-01 00:03:00,40.0,27.0,30.01,WSW,257,2.0,10.0,60,0.00,,,1.03,,2013-02-01 05:03:00,
2013-02-01 00:12:00,40.0,27.0,30.01,WSW,257,2.0,10.0,60,0.00,,,1.03,,2013-02-01 05:12:00,
2013-02-01 00:22:00,39.0,27.0,30.01,West,269,5.0,12.0,62,0.00,,,0.02,,2013-02-01 05:22:00,
2013-02-01 00:32:00,40.0,27.0,30.01,West,259,5.0,15.0,60,0.00,,,0.02,,2013-02-01 05:32:00,
2013-02-01 00:42:00,40.0,27.0,30.01,West,259,5.0,15.0,60,0.00,,,0.02,,2013-02-01 05:42:00,
2013-02-01 00:52:00,39.0,27.0,30.01,SW,217,3.0,11.0,61,0.00,,,0.02,,2013-02-01 05:52:00,
2013-02-01 01:02:00,39.0,27.0,30.01,South,180,3.0,14.0,63,0.00,,,0.02,,2013-02-01 06:02:00,
2013-02-01 01:11:00,39.0,27.0,30.01,South,180,3.0,14.0,63,0.00,,,0.02,,2013-02-01 06:11:00,
2013-02-01 01:22:00,40.0,28.0,30.00,SW,217,4.0,13.0,62,0.00,,,0.02,,2013-02-01 06:22:00,
2013-02-01 01:32:00,40.0,28.0,30.00,SSW,200,5.0,11.0,61,0.00,,,0.02,,2013-02-01 06:32:00,
2013-02-01 01:42:00,40.0,28.0,30.00,SSW,200,5.0,11.0,61,0.00,,,0.02,,2013-02-01 06:42:00,
2013-02-01 01:52:00,40.0,28.0,30.00,SW,215,5.0,13.0,62,0.00,,,0.02,,2013-02-01 06:52:00,
2013-02-01 02:02:00,40.0,28.0,30.00,SSW,212,4.0,11.0,62,0.00,,,0.02,,2013-02-01 07:02:00,
2013-02-01 02:12:00,40.0,28.0,29.99,NNE,21,6.0,10.0,62,0.00,,,0.02,,2013-02-01 07:12:00,
2013-02-01 02:22:00,40.0,28.0,29.99,NNE,21,6.0,10.0,62,0.00,,,0.02,,2013-02-01 07:22:00,
2013-02-01 02:32:00,40.0,28.0,29.99,South,187,6.0,13.0,61,0.00,,,0.02,,2013-02-01 07:32:00,
2013-02-01 02:42:00,40.0,28.0,29.99,South,187,6.0,13.0,61,0.00,,,0.02,,2013-02-01 07:42:00,
2013-02-01 02:52:00,40.0,28.0,29.98,WSW,238,7.0,18.0,61,0.00,,,0.02,,2013-02-01 07:52:00,
2013-02-01 03:01:00,40.0,28.0,29.97,SSW,194,7.0,19.0,61,0.00,,,0.02,,2013-02-01 08:01:00,
2013-02-01 03:11:00,40.0,28.0,29.97,SSW,194,7.0,19.0,61,0.00,,,0.02,,2013-02-01 08:11:00,
2013-02-01 03:21:00,41.0,29.0,29.96,West,271,8.0,15.0,61,0.00,,,0.02,,2013-02-01 08:21:00,
2013-02-01 03:32:00,41.0,29.0,29.96,West,274,12.0,20.0,61,0.00,,,0.02,,2013-02-01 08:32:00,
2013-02-01 03:42:00,41.0,29.0,29.96,West,274,12.0,20.0,61,0.00,,,0.02,,2013-02-01 08:42:00,
2013-02-01 03:52:00,40.0,28.0,29.95,West,259,6.0,17.0,61,0.00,,,0.02,,2013-02-01 08:52:00,
2013-02-01 04:01:00,40.0,28.0,29.95,SW,236,5.0,16.0,62,0.00,,,0.02,,2013-02-01 09:01:00,
2013-02-01 04:11:00,40.0,28.0,29.95,SW,236,5.0,16.0,62,0.00,,,0.02,,2013-02-01 09:11:00,
2013-02-01 04:21:00,41.0,29.0,29.93,North,359,10.0,24.0,62,0.00,,,0.02,,2013-02-01 09:21:00,
2013-02-01 04:32:00,41.0,29.0,29.92,SSW,210,6.0,21.0,62,0.00,,,0.02,,2013-02-01 09:32:00,
2013-02-01 04:42:00,41.0,29.0,29.92,SSW,210,6.0,21.0,62,0.00,,,0.02,,2013-02-01 09:42:00,
2013-02-01 04:52:00,41.0,29.0,29.92,WNW,284,5.0,21.0,61,0.00,,,0.02,,2013-02-01 09:52:00,
2013-02-01 05:01:00,41.0,29.0,29.91,WSW,248,8.0,20.0,61,0.00,,,0.02,,2013-02-01 10:01:00,
2013-02-01 05:11:00,41.0,29.0,29.91,WSW,248,8.0,20.0,61,0.00,,,0.02,,2013-02-01 10:11:00,
2013-02-01 05:21:00,42.0,30.0,29.92,WNW,298,6.0,20.0,61,0.00,,,0.02,,2013-02-01 10:21:00,
2013-02-01 05:32:00,42.0,29.0,29.92,WSW,253,6.0,27.0,60,0.00,,,0.02,,2013-02-01 10:32:00,
2013-02-01 05:42:00,42.0,29.0,29.92,WSW,253,6.0,27.0,60,0.00,,,0.02,,2013-02-01 10:42:00,
2013-02-01 05:53:00,42.0,29.0,29.92,WSW,245,9.0,16.0,60,0.00,,,0.02,,2013-02-01 10:53:00,
2013-02-01 06:02:00,42.0,30.0,29.93,North,359,2.0,16.0,61,0.00,,,0.02,,2013-02-01 11:02:00,
2013-02-01 06:11:00,42.0,30.0,29.93,North,359,2.0,16.0,61,0.00,,,0.02,,2013-02-01 11:11:00,
2013-02-01 06:22:00,42.0,30.0,29.95,North,359,2.0,18.0,61,0.00,,,0.02,,2013-02-01 11:22:00,
2013-02-01 06:32:00,41.0,29.0,29.97,WSW,245,6.0,16.0,62,0.00,,,0.02,,2013-02-01 11:32:00,
2013-02-01 06:42:00,41.0,29.0,29.97,WSW,245,6.0,16.0,62,0.00,,,0.02,,2013-02-01 11:42:00,
2013-02-01 06:53:00,42.0,30.0,29.98,North,359,0.0,3.0,62,0.00,,,0.02,,2013-02-01 11:53:00,
2013-02-01 07:03:00,42.0,30.0,29.99,North,359,0.0,8.0,62,0.00,,,0.02,,2013-02-01 12:03:00,
2013-02-01 07:12:00,42.0,30.0,29.99,North,359,0.0,8.0,62,0.00,,,0.02,,2013-02-01 12:12:00,
2013-02-01 07:22:00,42.0,30.0,30.01,WNW,302,0.0,15.0,62,0.00,,,0.02,,2013-02-01 12:22:00,
2013-02-01 07:32:00,41.0,30.0,30.02,West,259,8.0,12.0,64,0.00,,,0.02,,2013-02-01 12:32:00,
2013-02-01 07:42:00,41.0,30.0,30.02,West,259,8.0,12.0,64,0.00,,,0.02,,2013-02-01 12:42:00,
2013-02-01 07:52:00,41.0,30.0,30.04,WSW,238,12.0,18.0,64,0.00,,,0.02,,2013-02-01 12:52:00,
2013-02-01 08:02:00,41.0,31.0,30.06,North,359,3.0,13.0,66,0.00,,,0.02,,2013-02-01 13:02:00,
2013-02-01 08:11:00,41.0,31.0,30.06,North,359,3.0,13.0,66,0.00,,,0.02,,2013-02-01 13:11:00,
2013-02-01 08:22:00,41.0,26.0,30.07,North,359,0.0,25.0,55,0.00,,,0.02,,2013-02-01 13:22:00,
2013-02-01 08:33:00,39.0,25.0,30.10,North,359,1.0,20.0,56,0.00,,,0.02,,2013-02-01 13:33:00,
2013-02-01 08:42:00,39.0,25.0,30.10,North,359,1.0,20.0,56,0.00,,,0.02,,2013-02-01 13:42:00,
2013-02-01 08:53:00,39.0,20.0,30.12,NNW,330,12.0,27.0,46,0.00,,,0.02,,2013-02-01 13:53:00,
2013-02-01 09:03:00,39.0,17.0,30.14,North,359,2.0,25.0,41,0.00,,,0.02,,2013-02-01 14:03:00,
2013-02-01 09:11:00,39.0,13.0,30.16,NW,314,0.0,16.0,34,0.00,,,0.02,,2013-02-01 14:11:00,
2013-02-01 09:22:00,39.0,13.0,30.16,NW,314,0.0,16.0,34,0.00,,,0.02,,2013-02-01 14:22:00,
2013-02-01 09:32:00,39.0,14.0,30.17,North,359,1.0,3.0,35,0.00,,,0.02,,2013-02-01 14:32:00,
2013-02-01 09:42:00,39.0,14.0,30.17,North,359,1.0,3.0,35,0.00,,,0.02,,2013-02-01 14:42:00,
2013-02-01 09:53:00,39.0,13.0,30.18,North,359,0.0,17.0,34,0.00,,,0.02,,2013-02-01 14:53:00,
2013-02-01 10:02:00,40.0,13.0,30.18,North,359,0.0,0.0,32,0.00,,,0.02,,2013-02-01 15:02:00,
2013-02-01 10:12:00,40.0,14.0,30.19,North,359,0.0,0.0,34,0.00,,,0.02,,2013-02-01 15:12:00,
2013-02-01 10:22:00,40.0,14.0,30.19,North,359,0.0,0.0,34,0.00,,,0.02,,2013-02-01 15:22:00,
2013-02-01 10:33:00,40.0,13.0,30.19,North,359,2.0,9.0,32,0.00,,,0.02,,2013-02-01 15:33:00,
2013-02-01 10:42:00,40.0,13.0,30.19,North,359,2.0,9.0,32,0.00,,,0.02,,2013-02-01 15:42:00,
2013-02-01 10:52:00,40.0,13.0,30.20,North,359,0.0,0.0,33,0.00,,,0.02,,2013-02-01 15:52:00,
2013-02-01 11:03:00,40.0,12.0,30.20,North,359,0.0,0.0,31,0.00,,,0.02,,2013-02-01 16:03:00,
2013-02-01 11:11:00,40.0,12.0,30.21,West,281,0.0,15.0,31,0.00,,,0.02,,2013-02-01 16:11:00,
2013-02-01 11:22:00,40.0,12.0,30.21,West,281,0.0,15.0,31,0.00,,,0.02,,2013-02-01 16:22:00,
2013-02-01 11:33:00,41.0,13.0,30.21,North,359,0.0,8.0,31,0.00,,,0.02,,2013-02-01 16:33:00,
2013-02-01 11:43:00,40.0,11.0,30.22,North,359,0.0,0.0,30,0.00,,,0.02,,2013-02-01 16:43:00,
2013-02-01 11:53:00,40.0,11.0,30.22,North,359,0.0,0.0,30,0.00,,,0.02,,2013-02-01 16:53:00,
2013-02-01 12:02:00,41.0,13.0,30.22,North,359,5.0,11.0,32,0.00,,,0.02,,2013-02-01 17:02:00,
2013-02-01 12:12:00,40.0,10.0,30.22,North,359,0.0,15.0,29,0.00,,,0.02,,2013-02-01 17:12:00,
2013-02-01 12:22:00,40.0,10.0,30.22,North,359,0.0,15.0,29,0.00,,,0.02,,2013-02-01 17:22:00,
2013-02-01 12:32:00,42.0,13.0,30.22,North,359,1.0,8.0,30,0.00,,,0.02,,2013-02-01 17:32:00,
2013-02-01 12:42:00,42.0,13.0,30.22,North,359,1.0,8.0,30,0.00,,,0.02,,2013-02-01 17:42:00,
2013-02-01 12:53:00,41.0,11.0,30.22,North,349,0.0,0.0,29,0.00,,,0.02,,2013-02-01 17:53:00,
2013-02-01 13:03:00,40.0,10.0,30.22,North,349,0.0,0.0,29,0.00,,,0.02,,2013-02-01 18:03:00,
2013-02-01 13:12:00,40.0,10.0,30.22,North,349,0.0,0.0,29,0.00,,,0.02,,2013-02-01 18:12:00,
2013-02-01 13:22:00,40.0,9.0,30.22,North,349,0.0,0.0,27,0.00,,,0.02,,2013-02-01 18:22:00,
2013-02-01 13:32:00,41.0,12.0,30.22,North,349,0.0,0.0,30,0.00,,,0.02,,2013-02-01 18:32:00,
2013-02-01 13:42:00,41.0,12.0,30.22,North,349,0.0,0.0,30,0.00,,,0.02,,2013-02-01 18:42:00,
2013-02-01 13:53:00,40.0,10.0,30.22,North,359,0.0,10.0,28,0.00,,,0.02,,2013-02-01 18:53:00,
2013-02-01 14:03:00,42.0,10.0,30.22,WNW,298,0.0,17.0,27,0.00,,,0.02,,2013-02-01 19:03:00,
2013-02-01 14:12:00,42.0,10.0,30.22,WNW,298,0.0,17.0,27,0.00,,,0.02,,2013-02-01 19:12:00,
2013-02-01 14:21:00,41.0,10.0,30.22,North,359,2.0,14.0,27,0.00,,,0.02,,2013-02-01 19:21:00,
2013-02-01 14:32:00,42.0,11.0,30.22,North,359,0.0,0.0,28,0.00,,,0.02,,2013-02-01 19:32:00,
2013-02-01 14:42:00,42.0,11.0,30.22,North,359,0.0,0.0,28,0.00,,,0.02,,2013-02-01 19:42:00,
2013-02-01 14:52:00,41.0,9.0,30.22,North,359,0.0,0.0,26,0.00,,,0.02,,2013-02-01 19:52:00,
2013-02-01 15:02:00,41.0,10.0,30.23,North,359,0.0,8.0,27,0.00,,,0.02,,2013-02-01 20:02:00,
2013-02-01 15:11:00,41.0,11.0,30.23,North,359,1.0,7.0,29,0.00,,,0.02,,2013-02-01 20:11:00,
2013-02-01 15:21:00,41.0,11.0,30.23,North,359,1.0,7.0,29,0.00,,,0.02,,2013-02-01 20:21:00,
2013-02-01 15:32:00,41.0,12.0,30.23,North,359,0.0,3.0,30,0.00,,,0.02,,2013-02-01 20:32:00,
2013-02-01 15:42:00,41.0,10.0,30.23,North,359,0.0,5.0,27,0.00,,,0.02,,2013-02-01 20:42:00,
2013-02-01 15:52:00,41.0,10.0,30.23,North,359,0.0,5.0,27,0.00,,,0.02,,2013-02-01 20:52:00,
2013-02-01 16:02:00,41.0,11.0,30.23,NNW,343,0.0,7.0,29,0.00,,,0.02,,2013-02-01 21:02:00,
2013-02-01 16:12:00,41.0,11.0,30.23,NNW,343,0.0,7.0,29,0.00,,,0.02,,2013-02-01 21:12:00,
2013-02-01 16:22:00,41.0,10.0,30.23,NNW,343,0.0,0.0,28,0.00,,,0.02,,2013-02-01 21:22:00,
2013-02-01 16:32:00,41.0,10.0,30.24,NNW,343,0.0,0.0,28,0.00,,,0.02,,2013-02-01 21:32:00,
2013-02-01 16:42:00,41.0,10.0,30.24,NNW,343,0.0,0.0,28,0.00,,,0.02,,2013-02-01 21:42:00,
2013-02-01 16:52:00,40.0,10.0,30.24,NNW,343,0.0,0.0,29,0.00,,,0.02,,2013-02-01 21:52:00,
2013-02-01 17:02:00,39.0,11.0,30.24,NNW,343,0.0,0.0,31,0.00,,,0.02,,2013-02-01 22:02:00,
2013-02-01 17:11:00,39.0,12.0,30.24,NNW,343,0.0,0.0,32,0.00,,,0.02,,2013-02-01 22:11:00,
2013-02-01 17:21:00,39.0,12.0,30.24,NNW,343,0.0,0.0,32,0.00,,,0.02,,2013-02-01 22:21:00,
2013-02-01 17:32:00,38.0,11.0,30.25,NNW,343,0.0,0.0,33,0.00,,,0.02,,2013-02-01 22:32:00,
2013-02-01 17:42:00,38.0,11.0,30.25,NNW,343,0.0,0.0,33,0.00,,,0.02,,2013-02-01 22:42:00,
2013-02-01 17:52:00,37.0,10.0,30.25,West,281,2.0,8.0,32,0.00,,,0.02,,2013-02-01 22:52:00,
2013-02-01 18:01:00,37.0,12.0,30.25,North,359,0.0,9.0,35,0.00,,,0.02,,2013-02-01 23:01:00,
2013-02-01 18:11:00,37.0,12.0,30.25,North,359,0.0,9.0,35,0.00,,,0.02,,2013-02-01 23:11:00,
2013-02-01 18:21:00,36.0,12.0,30.26,North,359,0.0,0.0,37,0.00,,,0.02,,2013-02-01 23:21:00,
2013-02-01 18:32:00,35.0,11.0,30.26,NNE,15,0.0,4.0,36,0.00,,,0.02,,2013-02-01 23:32:00,
2013-02-01 18:42:00,35.0,11.0,30.26,NNE,15,0.0,4.0,36,0.00,,,0.02,,2013-02-01 23:42:00,
2013-02-01 18:52:00,33.0,15.0,30.27,NNE,15,0.0,0.0,46,0.00,,,0.02,,2013-02-01 23:52:00,
2013-02-01 19:02:00,33.0,12.0,30.27,NNE,15,0.0,0.0,42,0.00,,,0.02,,2013-02-02 00:02:00,
2013-02-01 19:11:00,33.0,12.0,30.27,NNE,15,0.0,0.0,42,0.00,,,0.02,,2013-02-02 00:11:00,
2013-02-01 19:21:00,34.0,12.0,30.28,NNE,15,0.0,0.0,40,0.00,,,0.02,,2013-02-02 00:21:00,
2013-02-01 19:32:00,33.0,13.0,30.29,NNE,15,0.0,0.0,44,0.00,,,0.02,,2013-02-02 00:32:00,
2013-02-01 19:42:00,33.0,13.0,30.29,NNE,15,0.0,0.0,44,0.00,,,0.02,,2013-02-02 00:42:00,
2013-02-01 19:52:00,32.0,13.0,30.29,NNE,15,0.0,0.0,44,0.00,,,0.02,,2013-02-02 00:52:00,
2013-02-01 20:02:00,32.0,12.0,30.29,NE,49,0.0,8.0,43,0.00,,,0.02,,2013-02-02 01:02:00,
2013-02-01 20:11:00,32.0,12.0,30.29,NE,49,0.0,8.0,43,0.00,,,0.02,,2013-02-02 01:11:00,
2013-02-01 20:21:00,32.0,11.0,30.31,NNW,328,0.0,0.0,41,0.00,,,0.02,,2013-02-02 01:21:00,
2013-02-01 20:32:00,31.0,11.0,30.31,North,356,0.0,6.0,43,0.00,,,0.02,,2013-02-02 01:32:00,
2013-02-01 20:42:00,31.0,11.0,30.31,North,356,0.0,6.0,43,0.00,,,0.02,,2013-02-02 01:42:00,
2013-02-01 20:52:00,31.0,12.0,30.32,NNE,21,0.0,4.0,44,0.00,,,0.02,,2013-02-02 01:52:00,
2013-02-01 21:01:00,31.0,11.0,30.33,NNE,21,0.0,0.0,43,0.00,,,0.02,,2013-02-02 02:01:00,
2013-02-01 21:11:00,31.0,11.0,30.33,NNE,21,0.0,0.0,43,0.00,,,0.02,,2013-02-02 02:11:00,
2013-02-01 21:22:00,30.0,11.0,30.33,NNE,21,0.0,0.0,44,0.00,,,0.02,,2013-02-02 02:22:00,
2013-02-01 21:32:00,30.0,11.0,30.33,NNE,21,0.0,4.0,44,0.00,,,0.02,,2013-02-02 02:32:00,
2013-02-01 21:42:00,30.0,11.0,30.33,NNE,21,0.0,4.0,44,0.00,,,0.02,,2013-02-02 02:42:00,
2013-02-01 21:52:00,29.0,11.0,30.33,North,353,2.0,4.0,47,0.00,,,0.02,,2013-02-02 02:52:00,
2013-02-01 22:02:00,30.0,13.0,30.34,West,281,0.0,0.0,48,0.00,,,0.02,,2013-02-02 03:02:00,
2013-02-01 22:11:00,29.0,11.0,30.35,West,281,0.0,0.0,46,0.00,,,0.02,,2013-02-02 03:11:00,
2013-02-01 22:22:00,29.0,11.0,30.35,West,281,0.0,0.0,46,0.00,,,0.02,,2013-02-02 03:22:00,
2013-02-01 22:32:00,29.0,12.0,30.35,West,281,0.0,0.0,49,0.00,,,0.02,,2013-02-02 03:32:00,
2013-02-01 22:42:00,29.0,13.0,30.35,West,281,0.0,0.0,50,0.00,,,0.02,,2013-02-02 03:42:00,
2013-02-01 22:52:00,29.0,13.0,30.35,West,281,0.0,0.0,50,0.00,,,0.02,,2013-02-02 03:52:00,
2013-02-01 23:02:00,28.0,13.0,30.35,West,281,0.0,0.0,52,0.00,,,0.02,,2013-02-02 04:02:00,
2013-02-01 23:11:00,28.0,13.0,30.35,West,281,0.0,0.0,52,0.00,,,0.02,,2013-02-02 04:11:00,
2013-02-01 23:22:00,28.0,14.0,30.35,West,281,0.0,0.0,54,0.00,,,0.02,,2013-02-02 04:22:00,
2013-02-01 23:32:00,28.0,13.0,30.36,West,281,0.0,0.0,52,0.00,,,0.02,,2013-02-02 04:32:00,
2013-02-01 23:42:00,28.0,13.0,30.36,West,281,0.0,0.0,52,0.00,,,0.02,,2013-02-02 04:42:00,
2013-02-01 23:52:00,28.0,12.0,30.36,West,281,0.0,0.0,50,0.00,,,0.02,,2013-02-02 04:52:00,